Aeroporto :
LOGIN :

Iscrizione | Disclaimer

   EN    FR    IT 

 










Sommario :    VFR   VFR Marginale   IFR   IFR Intensivo   IFR Molto Intensivo
Visibilità : 
Base nubi : 
>= 8 km
>= 3000ft
5 / 8 km
1000 / 3000 ft
1500m / 5 km
500 / 1000 ft
800 / 1500m
200 / 500 ft
< 800m
< 200 ft
Simboli :   Temporali  Nebbia  Neve Forte  Precipitazioni Forti  Vento > 20 kt
SIGMETs :   Varie  Temporali  Ghiacco  Turbolenza  Onda orograficha  Ceneri Vulcaniche






- Altitudine del aeroporto : 699 ft
- Codice IATA : PAD


EDLP - Paderborn Lippstadt

ULTIMO METAR :
  • 290750Z 06005KT 020V110 CAVOK 15/06 Q1029

METARs OBSOLETI :
  • 290720Z 04003KT 340V110 CAVOK 13/07 Q1029
  • 290650Z VRB02KT CAVOK 13/06 Q1030
  • 290620Z VRB02KT CAVOK 12/06 Q1030
  • 290550Z VRB01KT CAVOK 09/06 Q1030
  • 290520Z VRB02KT CAVOK 08/06 Q1030

TAF TAF EDLP
Valido dal 29 a 06 ore il 30 a 06 ore UTC


290500Z 2906/3006 VRB02KT CAVOK
BECMG 2907/2910 06007KT
BECMG 2918/2920 13004KT



MetMap, La meteo Aeronautica in un colpo d'occhio ! - Copyright ORBIFLY Dicembre 2007 - Disclaimer

ORBIFLY MET'MAP TEAM :

Programmazione e sviluppo : Alexandra Zaïnal
Concezione : Baudouin d'Aumeries
Aiuto per la programmazione : Marc-Olivier Méhu
Supporto tecnico e logistico : Manuel Goepfert
Aiuto per la traduzione : Arnaldo La Scala

Contatto : metmap@orbifly.com




FONTI E CREDITI :

   NOAA